sensor_id;sensor_type;location;lat;lon;timestamp;P1;durP1;ratioP1;P2;durP2;ratioP2
21671;SDS011;10997;52.242;8.168;2023-06-10T00:03:37;11.73;;;7.20;;
21671;SDS011;10997;52.242;8.168;2023-06-10T00:08:37;12.05;;;6.68;;
21671;SDS011;10997;52.242;8.168;2023-06-10T00:13:39;10.35;;;7.25;;
21671;SDS011;10997;52.242;8.168;2023-06-10T00:18:40;7.40;;;6.13;;
21671;SDS011;10997;52.242;8.168;2023-06-10T00:23:41;11.93;;;7.43;;
21671;SDS011;10997;52.242;8.168;2023-06-10T00:28:42;12.02;;;6.97;;
21671;SDS011;10997;52.242;8.168;2023-06-10T00:33:44;11.63;;;7.63;;
21671;SDS011;10997;52.242;8.168;2023-06-10T00:38:45;11.63;;;7.10;;
21671;SDS011;10997;52.242;8.168;2023-06-10T00:43:46;10.32;;;7.15;;
21671;SDS011;10997;52.242;8.168;2023-06-10T00:48:46;10.23;;;7.45;;
21671;SDS011;10997;52.242;8.168;2023-06-10T00:53:47;11.15;;;7.57;;
21671;SDS011;10997;52.242;8.168;2023-06-10T00:58:49;10.85;;;7.45;;
21671;SDS011;10997;52.242;8.168;2023-06-10T01:03:50;10.80;;;7.60;;
21671;SDS011;10997;52.242;8.168;2023-06-10T01:09:01;9.95;;;7.18;;
21671;SDS011;10997;52.242;8.168;2023-06-10T01:14:11;13.05;;;7.97;;
21671;SDS011;10997;52.242;8.168;2023-06-10T01:19:14;11.20;;;8.02;;
21671;SDS011;10997;52.242;8.168;2023-06-10T01:24:17;10.50;;;7.43;;
21671;SDS011;10997;52.242;8.168;2023-06-10T01:29:20;12.13;;;8.13;;
21671;SDS011;10997;52.242;8.168;2023-06-10T01:34:26;13.50;;;7.63;;
21671;SDS011;10997;52.242;8.168;2023-06-10T01:39:27;12.52;;;8.05;;
21671;SDS011;10997;52.242;8.168;2023-06-10T01:44:28;13.50;;;7.75;;
21671;SDS011;10997;52.242;8.168;2023-06-10T01:49:29;12.55;;;7.30;;
21671;SDS011;10997;52.242;8.168;2023-06-10T01:54:30;12.85;;;7.68;;
21671;SDS011;10997;52.242;8.168;2023-06-10T01:59:31;12.52;;;7.63;;
21671;SDS011;10997;52.242;8.168;2023-06-10T02:04:31;12.23;;;7.68;;
21671;SDS011;10997;52.242;8.168;2023-06-10T02:09:32;12.45;;;8.23;;
21671;SDS011;10997;52.242;8.168;2023-06-10T02:14:35;12.73;;;7.90;;
21671;SDS011;10997;52.242;8.168;2023-06-10T02:19:36;11.88;;;7.53;;
21671;SDS011;10997;52.242;8.168;2023-06-10T02:24:37;13.07;;;8.60;;
21671;SDS011;10997;52.242;8.168;2023-06-10T02:29:38;12.32;;;7.75;;
21671;SDS011;10997;52.242;8.168;2023-06-10T02:34:41;9.85;;;7.32;;
21671;SDS011;10997;52.242;8.168;2023-06-10T02:39:42;12.18;;;7.75;;
21671;SDS011;10997;52.242;8.168;2023-06-10T02:44:43;12.68;;;7.75;;
21671;SDS011;10997;52.242;8.168;2023-06-10T02:49:43;11.52;;;7.63;;
21671;SDS011;10997;52.242;8.168;2023-06-10T02:54:44;13.85;;;8.07;;
21671;SDS011;10997;52.242;8.168;2023-06-10T02:59:45;13.65;;;8.13;;
21671;SDS011;10997;52.242;8.168;2023-06-10T03:04:47;14.98;;;8.30;;
21671;SDS011;10997;52.242;8.168;2023-06-10T03:09:47;16.33;;;8.52;;
21671;SDS011;10997;52.242;8.168;2023-06-10T03:14:48;15.55;;;8.15;;
21671;SDS011;10997;52.242;8.168;2023-06-10T03:19:49;14.02;;;8.20;;
21671;SDS011;10997;52.242;8.168;2023-06-10T03:24:49;12.75;;;8.23;;
21671;SDS011;10997;52.242;8.168;2023-06-10T03:29:51;12.10;;;7.75;;
21671;SDS011;10997;52.242;8.168;2023-06-10T03:34:51;10.63;;;8.02;;
21671;SDS011;10997;52.242;8.168;2023-06-10T03:39:56;13.33;;;7.90;;
21671;SDS011;10997;52.242;8.168;2023-06-10T03:44:57;16.02;;;7.95;;
21671;SDS011;10997;52.242;8.168;2023-06-10T03:49:58;10.35;;;7.90;;
21671;SDS011;10997;52.242;8.168;2023-06-10T03:54:58;10.82;;;7.13;;
21671;SDS011;10997;52.242;8.168;2023-06-10T03:59:59;13.55;;;7.70;;
21671;SDS011;10997;52.242;8.168;2023-06-10T04:05:00;12.75;;;7.70;;
21671;SDS011;10997;52.242;8.168;2023-06-10T04:10:01;10.13;;;7.35;;
21671;SDS011;10997;52.242;8.168;2023-06-10T04:15:03;12.10;;;7.65;;
21671;SDS011;10997;52.242;8.168;2023-06-10T04:20:05;11.65;;;7.28;;
21671;SDS011;10997;52.242;8.168;2023-06-10T04:25:08;11.30;;;6.93;;
21671;SDS011;10997;52.242;8.168;2023-06-10T04:30:10;13.70;;;7.03;;
21671;SDS011;10997;52.242;8.168;2023-06-10T04:35:11;12.15;;;6.57;;
21671;SDS011;10997;52.242;8.168;2023-06-10T04:40:13;10.02;;;6.80;;
21671;SDS011;10997;52.242;8.168;2023-06-10T04:45:14;12.00;;;6.57;;
21671;SDS011;10997;52.242;8.168;2023-06-10T04:50:15;11.00;;;6.50;;
21671;SDS011;10997;52.242;8.168;2023-06-10T04:55:15;9.93;;;6.50;;
21671;SDS011;10997;52.242;8.168;2023-06-10T05:00:16;12.43;;;6.30;;
21671;SDS011;10997;52.242;8.168;2023-06-10T05:05:18;11.15;;;6.40;;
21671;SDS011;10997;52.242;8.168;2023-06-10T05:10:18;11.32;;;5.88;;
21671;SDS011;10997;52.242;8.168;2023-06-10T05:15:19;11.95;;;6.15;;
21671;SDS011;10997;52.242;8.168;2023-06-10T05:20:19;12.15;;;6.32;;
21671;SDS011;10997;52.242;8.168;2023-06-10T05:25:20;11.57;;;6.25;;
21671;SDS011;10997;52.242;8.168;2023-06-10T05:30:21;11.23;;;5.80;;
21671;SDS011;10997;52.242;8.168;2023-06-10T05:35:24;10.20;;;6.60;;
21671;SDS011;10997;52.242;8.168;2023-06-10T05:40:25;10.38;;;5.93;;
21671;SDS011;10997;52.242;8.168;2023-06-10T05:45:26;9.27;;;6.20;;
21671;SDS011;10997;52.242;8.168;2023-06-10T05:50:27;10.40;;;6.30;;
21671;SDS011;10997;52.242;8.168;2023-06-10T05:55:28;9.27;;;5.70;;
21671;SDS011;10997;52.242;8.168;2023-06-10T06:00:28;10.80;;;6.65;;
21671;SDS011;10997;52.242;8.168;2023-06-10T06:05:30;10.73;;;6.30;;
21671;SDS011;10997;52.242;8.168;2023-06-10T06:10:34;14.43;;;7.10;;
21671;SDS011;10997;52.242;8.168;2023-06-10T06:15:35;10.32;;;6.15;;
21671;SDS011;10997;52.242;8.168;2023-06-10T06:20:36;13.32;;;6.00;;
21671;SDS011;10997;52.242;8.168;2023-06-10T06:25:36;10.68;;;6.00;;
21671;SDS011;10997;52.242;8.168;2023-06-10T06:30:38;11.23;;;6.18;;
21671;SDS011;10997;52.242;8.168;2023-06-10T06:35:39;11.10;;;6.05;;
21671;SDS011;10997;52.242;8.168;2023-06-10T06:40:40;8.43;;;6.30;;
21671;SDS011;10997;52.242;8.168;2023-06-10T06:45:40;12.45;;;6.32;;
21671;SDS011;10997;52.242;8.168;2023-06-10T06:50:41;11.85;;;6.10;;
21671;SDS011;10997;52.242;8.168;2023-06-10T06:55:42;9.48;;;6.60;;
21671;SDS011;10997;52.242;8.168;2023-06-10T07:00:42;8.32;;;5.65;;
21671;SDS011;10997;52.242;8.168;2023-06-10T07:05:43;10.07;;;5.72;;
21671;SDS011;10997;52.242;8.168;2023-06-10T07:10:43;11.98;;;5.80;;
21671;SDS011;10997;52.242;8.168;2023-06-10T07:15:44;11.38;;;5.50;;
21671;SDS011;10997;52.242;8.168;2023-06-10T07:20:45;10.95;;;5.65;;
21671;SDS011;10997;52.242;8.168;2023-06-10T07:25:46;11.48;;;5.80;;
21671;SDS011;10997;52.242;8.168;2023-06-10T07:30:46;11.15;;;6.00;;
21671;SDS011;10997;52.242;8.168;2023-06-10T07:35:47;9.77;;;5.85;;
21671;SDS011;10997;52.242;8.168;2023-06-10T07:40:48;10.05;;;5.75;;
21671;SDS011;10997;52.242;8.168;2023-06-10T07:45:48;9.98;;;5.82;;
21671;SDS011;10997;52.242;8.168;2023-06-10T07:50:55;11.32;;;5.95;;
21671;SDS011;10997;52.242;8.168;2023-06-10T07:55:55;9.20;;;5.43;;
21671;SDS011;10997;52.242;8.168;2023-06-10T08:00:56;8.73;;;5.25;;
21671;SDS011;10997;52.242;8.168;2023-06-10T08:05:57;7.25;;;5.32;;
21671;SDS011;10997;52.242;8.168;2023-06-10T08:10:57;11.55;;;5.88;;
21671;SDS011;10997;52.242;8.168;2023-06-10T08:15:58;11.43;;;5.63;;
21671;SDS011;10997;52.242;8.168;2023-06-10T08:20:59;9.10;;;5.93;;
21671;SDS011;10997;52.242;8.168;2023-06-10T08:26:00;11.07;;;5.55;;
21671;SDS011;10997;52.242;8.168;2023-06-10T08:31:02;11.07;;;5.07;;
21671;SDS011;10997;52.242;8.168;2023-06-10T08:36:02;7.53;;;5.53;;
21671;SDS011;10997;52.242;8.168;2023-06-10T08:41:04;9.45;;;5.63;;
21671;SDS011;10997;52.242;8.168;2023-06-10T08:46:05;11.38;;;5.30;;
21671;SDS011;10997;52.242;8.168;2023-06-10T08:51:09;8.52;;;5.20;;
21671;SDS011;10997;52.242;8.168;2023-06-10T08:56:11;8.85;;;5.40;;
21671;SDS011;10997;52.242;8.168;2023-06-10T09:01:13;7.03;;;4.93;;
21671;SDS011;10997;52.242;8.168;2023-06-10T09:06:13;9.73;;;4.93;;
21671;SDS011;10997;52.242;8.168;2023-06-10T09:11:14;11.13;;;5.30;;
21671;SDS011;10997;52.242;8.168;2023-06-10T09:16:15;9.23;;;4.70;;
21671;SDS011;10997;52.242;8.168;2023-06-10T09:21:16;9.00;;;5.28;;
21671;SDS011;10997;52.242;8.168;2023-06-10T09:26:17;12.60;;;5.35;;
21671;SDS011;10997;52.242;8.168;2023-06-10T09:31:18;7.40;;;5.20;;
21671;SDS011;10997;52.242;8.168;2023-06-10T09:36:22;9.45;;;4.90;;
21671;SDS011;10997;52.242;8.168;2023-06-10T09:41:31;9.27;;;5.57;;
21671;SDS011;10997;52.242;8.168;2023-06-10T09:46:35;7.88;;;5.03;;
21671;SDS011;10997;52.242;8.168;2023-06-10T09:51:35;8.57;;;4.50;;
21671;SDS011;10997;52.242;8.168;2023-06-10T09:56:36;9.80;;;4.90;;
21671;SDS011;10997;52.242;8.168;2023-06-10T10:01:37;8.73;;;4.78;;
21671;SDS011;10997;52.242;8.168;2023-06-10T10:06:38;7.40;;;5.00;;
21671;SDS011;10997;52.242;8.168;2023-06-10T10:11:40;7.55;;;4.65;;
21671;SDS011;10997;52.242;8.168;2023-06-10T10:16:42;11.30;;;4.63;;
21671;SDS011;10997;52.242;8.168;2023-06-10T10:21:43;7.15;;;5.07;;
21671;SDS011;10997;52.242;8.168;2023-06-10T10:26:50;9.48;;;4.90;;
21671;SDS011;10997;52.242;8.168;2023-06-10T10:31:54;6.70;;;4.97;;
21671;SDS011;10997;52.242;8.168;2023-06-10T10:36:57;8.45;;;4.90;;
21671;SDS011;10997;52.242;8.168;2023-06-10T10:41:58;10.02;;;5.07;;
21671;SDS011;10997;52.242;8.168;2023-06-10T10:46:59;8.52;;;4.85;;
21671;SDS011;10997;52.242;8.168;2023-06-10T10:52:04;8.18;;;4.60;;
21671;SDS011;10997;52.242;8.168;2023-06-10T11:02:17;7.70;;;5.18;;
21671;SDS011;10997;52.242;8.168;2023-06-10T11:07:33;8.63;;;4.65;;
21671;SDS011;10997;52.242;8.168;2023-06-10T11:28:29;6.75;;;4.88;;
21671;SDS011;10997;52.242;8.168;2023-06-10T11:33:29;9.00;;;4.60;;
21671;SDS011;10997;52.242;8.168;2023-06-10T11:38:31;7.72;;;4.78;;
21671;SDS011;10997;52.242;8.168;2023-06-10T11:43:32;7.78;;;4.55;;
21671;SDS011;10997;52.242;8.168;2023-06-10T11:48:33;7.05;;;4.97;;
21671;SDS011;10997;52.242;8.168;2023-06-10T11:53:34;8.68;;;4.65;;
21671;SDS011;10997;52.242;8.168;2023-06-10T11:58:35;8.13;;;4.78;;
21671;SDS011;10997;52.242;8.168;2023-06-10T12:03:36;7.05;;;4.55;;
21671;SDS011;10997;52.242;8.168;2023-06-10T12:08:43;6.95;;;4.90;;
21671;SDS011;10997;52.242;8.168;2023-06-10T12:13:46;7.47;;;4.55;;
21671;SDS011;10997;52.242;8.168;2023-06-10T12:18:51;7.22;;;4.70;;
21671;SDS011;10997;52.242;8.168;2023-06-10T12:29:19;6.63;;;4.88;;
21671;SDS011;10997;52.242;8.168;2023-06-10T12:34:30;9.35;;;4.55;;
21671;SDS011;10997;52.242;8.168;2023-06-10T12:39:38;7.95;;;4.68;;
21671;SDS011;10997;52.242;8.168;2023-06-10T12:44:39;7.05;;;4.70;;
21671;SDS011;10997;52.242;8.168;2023-06-10T12:49:41;6.85;;;4.53;;
21671;SDS011;10997;52.242;8.168;2023-06-10T12:54:41;7.75;;;4.55;;
21671;SDS011;10997;52.242;8.168;2023-06-10T12:59:42;6.05;;;4.47;;
21671;SDS011;10997;52.242;8.168;2023-06-10T13:04:50;5.30;;;4.32;;
21671;SDS011;10997;52.242;8.168;2023-06-10T13:09:51;6.18;;;4.90;;
21671;SDS011;10997;52.242;8.168;2023-06-10T13:14:51;7.32;;;4.75;;
21671;SDS011;10997;52.242;8.168;2023-06-10T13:19:53;6.70;;;4.68;;
21671;SDS011;10997;52.242;8.168;2023-06-10T13:24:54;6.88;;;4.00;;
21671;SDS011;10997;52.242;8.168;2023-06-10T13:29:56;5.80;;;4.43;;
21671;SDS011;10997;52.242;8.168;2023-06-10T13:34:57;5.95;;;4.68;;
21671;SDS011;10997;52.242;8.168;2023-06-10T13:39:57;6.15;;;4.65;;
21671;SDS011;10997;52.242;8.168;2023-06-10T13:44:58;9.80;;;4.30;;
21671;SDS011;10997;52.242;8.168;2023-06-10T13:49:59;6.50;;;4.55;;
21671;SDS011;10997;52.242;8.168;2023-06-10T13:54:59;8.20;;;4.53;;
21671;SDS011;10997;52.242;8.168;2023-06-10T14:00:00;7.28;;;4.82;;
21671;SDS011;10997;52.242;8.168;2023-06-10T14:05:00;6.18;;;4.35;;
21671;SDS011;10997;52.242;8.168;2023-06-10T14:10:01;6.20;;;4.53;;
21671;SDS011;10997;52.242;8.168;2023-06-10T14:15:02;8.10;;;4.50;;
21671;SDS011;10997;52.242;8.168;2023-06-10T14:20:03;7.40;;;4.47;;
21671;SDS011;10997;52.242;8.168;2023-06-10T14:25:04;6.40;;;4.65;;
21671;SDS011;10997;52.242;8.168;2023-06-10T14:30:06;11.10;;;5.22;;
21671;SDS011;10997;52.242;8.168;2023-06-10T14:35:07;9.68;;;5.18;;
21671;SDS011;10997;52.242;8.168;2023-06-10T14:40:08;13.20;;;4.80;;
21671;SDS011;10997;52.242;8.168;2023-06-10T14:45:09;7.68;;;4.80;;
21671;SDS011;10997;52.242;8.168;2023-06-10T14:50:10;6.82;;;4.82;;
21671;SDS011;10997;52.242;8.168;2023-06-10T14:55:10;9.23;;;4.50;;
21671;SDS011;10997;52.242;8.168;2023-06-10T15:00:11;5.97;;;5.05;;
21671;SDS011;10997;52.242;8.168;2023-06-10T15:05:15;6.57;;;4.50;;
21671;SDS011;10997;52.242;8.168;2023-06-10T15:10:16;7.97;;;4.47;;
21671;SDS011;10997;52.242;8.168;2023-06-10T15:15:18;8.05;;;4.43;;
21671;SDS011;10997;52.242;8.168;2023-06-10T15:20:18;9.30;;;4.95;;
21671;SDS011;10997;52.242;8.168;2023-06-10T15:25:19;9.18;;;5.20;;
21671;SDS011;10997;52.242;8.168;2023-06-10T15:30:20;6.72;;;4.68;;
21671;SDS011;10997;52.242;8.168;2023-06-10T15:35:21;8.70;;;5.20;;
21671;SDS011;10997;52.242;8.168;2023-06-10T15:40:21;6.63;;;5.07;;
21671;SDS011;10997;52.242;8.168;2023-06-10T15:45:22;8.82;;;5.30;;
21671;SDS011;10997;52.242;8.168;2023-06-10T15:50:23;8.05;;;5.43;;
21671;SDS011;10997;52.242;8.168;2023-06-10T15:55:23;11.02;;;5.20;;
21671;SDS011;10997;52.242;8.168;2023-06-10T16:00:25;7.00;;;5.07;;
21671;SDS011;10997;52.242;8.168;2023-06-10T16:05:26;8.68;;;5.50;;
21671;SDS011;10997;52.242;8.168;2023-06-10T16:10:27;8.93;;;5.60;;
21671;SDS011;10997;52.242;8.168;2023-06-10T16:15:27;8.70;;;5.10;;
21671;SDS011;10997;52.242;8.168;2023-06-10T16:20:28;10.23;;;5.40;;
21671;SDS011;10997;52.242;8.168;2023-06-10T16:25:29;7.95;;;5.57;;
21671;SDS011;10997;52.242;8.168;2023-06-10T16:30:30;8.73;;;5.40;;
21671;SDS011;10997;52.242;8.168;2023-06-10T16:35:32;12.00;;;6.90;;
21671;SDS011;10997;52.242;8.168;2023-06-10T16:40:33;9.30;;;5.55;;
21671;SDS011;10997;52.242;8.168;2023-06-10T16:45:34;7.65;;;5.78;;
21671;SDS011;10997;52.242;8.168;2023-06-10T16:50:34;13.00;;;6.03;;
21671;SDS011;10997;52.242;8.168;2023-06-10T16:55:35;10.23;;;6.90;;
21671;SDS011;10997;52.242;8.168;2023-06-10T17:00:38;11.65;;;7.30;;
21671;SDS011;10997;52.242;8.168;2023-06-10T17:05:39;7.60;;;6.50;;
21671;SDS011;10997;52.242;8.168;2023-06-10T17:10:39;9.95;;;6.15;;
21671;SDS011;10997;52.242;8.168;2023-06-10T17:15:40;11.68;;;7.13;;
21671;SDS011;10997;52.242;8.168;2023-06-10T17:20:41;7.47;;;6.65;;
21671;SDS011;10997;52.242;8.168;2023-06-10T17:25:41;7.75;;;6.60;;
21671;SDS011;10997;52.242;8.168;2023-06-10T17:30:42;11.60;;;7.72;;
21671;SDS011;10997;52.242;8.168;2023-06-10T17:35:45;8.77;;;6.97;;
21671;SDS011;10997;52.242;8.168;2023-06-10T17:40:46;8.60;;;6.13;;
21671;SDS011;10997;52.242;8.168;2023-06-10T17:45:47;9.32;;;6.25;;
21671;SDS011;10997;52.242;8.168;2023-06-10T17:50:51;12.10;;;6.57;;
21671;SDS011;10997;52.242;8.168;2023-06-10T17:55:52;10.68;;;7.28;;
21671;SDS011;10997;52.242;8.168;2023-06-10T18:00:52;14.60;;;10.60;;
21671;SDS011;10997;52.242;8.168;2023-06-10T18:05:54;9.43;;;7.78;;
21671;SDS011;10997;52.242;8.168;2023-06-10T18:10:55;9.43;;;7.20;;
21671;SDS011;10997;52.242;8.168;2023-06-10T18:15:56;10.38;;;7.05;;
21671;SDS011;10997;52.242;8.168;2023-06-10T18:20:56;12.35;;;6.40;;
21671;SDS011;10997;52.242;8.168;2023-06-10T18:25:57;9.95;;;6.97;;
21671;SDS011;10997;52.242;8.168;2023-06-10T18:30:59;9.82;;;6.35;;
21671;SDS011;10997;52.242;8.168;2023-06-10T18:36:00;7.03;;;5.88;;
21671;SDS011;10997;52.242;8.168;2023-06-10T18:41:00;7.80;;;5.90;;
21671;SDS011;10997;52.242;8.168;2023-06-10T18:46:01;8.77;;;5.95;;
21671;SDS011;10997;52.242;8.168;2023-06-10T18:51:02;8.50;;;5.90;;
21671;SDS011;10997;52.242;8.168;2023-06-10T18:56:02;8.13;;;6.35;;
21671;SDS011;10997;52.242;8.168;2023-06-10T19:01:03;8.98;;;7.20;;
21671;SDS011;10997;52.242;8.168;2023-06-10T19:06:04;8.70;;;6.32;;
21671;SDS011;10997;52.242;8.168;2023-06-10T19:11:05;8.35;;;6.35;;
21671;SDS011;10997;52.242;8.168;2023-06-10T19:16:06;12.57;;;6.90;;
21671;SDS011;10997;52.242;8.168;2023-06-10T19:21:07;10.45;;;7.07;;
21671;SDS011;10997;52.242;8.168;2023-06-10T19:26:07;13.65;;;7.10;;
21671;SDS011;10997;52.242;8.168;2023-06-10T19:31:08;9.45;;;6.82;;
21671;SDS011;10997;52.242;8.168;2023-06-10T19:36:09;10.30;;;7.57;;
21671;SDS011;10997;52.242;8.168;2023-06-10T19:41:10;9.63;;;7.53;;
21671;SDS011;10997;52.242;8.168;2023-06-10T19:46:10;9.88;;;7.10;;
21671;SDS011;10997;52.242;8.168;2023-06-10T19:51:11;11.85;;;6.80;;
21671;SDS011;10997;52.242;8.168;2023-06-10T19:56:12;10.43;;;7.10;;
21671;SDS011;10997;52.242;8.168;2023-06-10T20:01:18;8.90;;;6.80;;
21671;SDS011;10997;52.242;8.168;2023-06-10T20:06:19;11.38;;;7.63;;
21671;SDS011;10997;52.242;8.168;2023-06-10T20:11:19;7.80;;;6.88;;
21671;SDS011;10997;52.242;8.168;2023-06-10T20:16:24;9.48;;;6.53;;
21671;SDS011;10997;52.242;8.168;2023-06-10T20:21:25;9.15;;;6.70;;
21671;SDS011;10997;52.242;8.168;2023-06-10T20:26:25;8.20;;;6.55;;
21671;SDS011;10997;52.242;8.168;2023-06-10T20:31:26;7.88;;;6.28;;
21671;SDS011;10997;52.242;8.168;2023-06-10T20:36:27;7.20;;;6.50;;
21671;SDS011;10997;52.242;8.168;2023-06-10T20:41:27;10.55;;;6.85;;
21671;SDS011;10997;52.242;8.168;2023-06-10T20:46:29;7.78;;;6.20;;
21671;SDS011;10997;52.242;8.168;2023-06-10T20:51:30;9.07;;;6.78;;
21671;SDS011;10997;52.242;8.168;2023-06-10T20:56:32;7.38;;;5.68;;
21671;SDS011;10997;52.242;8.168;2023-06-10T21:01:33;8.70;;;6.03;;
21671;SDS011;10997;52.242;8.168;2023-06-10T21:06:33;10.52;;;6.10;;
21671;SDS011;10997;52.242;8.168;2023-06-10T21:11:35;8.63;;;6.03;;
21671;SDS011;10997;52.242;8.168;2023-06-10T21:16:35;9.48;;;5.78;;
21671;SDS011;10997;52.242;8.168;2023-06-10T21:21:37;7.80;;;6.13;;
21671;SDS011;10997;52.242;8.168;2023-06-10T21:26:38;7.20;;;6.28;;
21671;SDS011;10997;52.242;8.168;2023-06-10T21:31:38;7.50;;;5.95;;
21671;SDS011;10997;52.242;8.168;2023-06-10T21:36:39;11.88;;;6.75;;
21671;SDS011;10997;52.242;8.168;2023-06-10T21:41:40;8.82;;;6.30;;
21671;SDS011;10997;52.242;8.168;2023-06-10T21:46:40;9.13;;;6.75;;
21671;SDS011;10997;52.242;8.168;2023-06-10T21:51:41;10.57;;;6.72;;
21671;SDS011;10997;52.242;8.168;2023-06-10T21:56:43;11.73;;;7.32;;
21671;SDS011;10997;52.242;8.168;2023-06-10T22:01:46;13.68;;;7.82;;
21671;SDS011;10997;52.242;8.168;2023-06-10T22:06:47;8.95;;;6.80;;
21671;SDS011;10997;52.242;8.168;2023-06-10T22:11:47;8.98;;;7.03;;
21671;SDS011;10997;52.242;8.168;2023-06-10T22:16:48;8.65;;;7.10;;
21671;SDS011;10997;52.242;8.168;2023-06-10T22:21:50;10.57;;;7.57;;
21671;SDS011;10997;52.242;8.168;2023-06-10T22:26:50;10.52;;;7.68;;
21671;SDS011;10997;52.242;8.168;2023-06-10T22:31:51;9.88;;;7.63;;
21671;SDS011;10997;52.242;8.168;2023-06-10T22:36:52;10.48;;;7.90;;
21671;SDS011;10997;52.242;8.168;2023-06-10T22:41:52;11.02;;;7.68;;
21671;SDS011;10997;52.242;8.168;2023-06-10T22:46:53;12.35;;;8.32;;
21671;SDS011;10997;52.242;8.168;2023-06-10T22:51:53;11.25;;;7.03;;
21671;SDS011;10997;52.242;8.168;2023-06-10T22:56:54;10.82;;;7.50;;
21671;SDS011;10997;52.242;8.168;2023-06-10T23:01:55;12.27;;;7.55;;
21671;SDS011;10997;52.242;8.168;2023-06-10T23:06:55;10.23;;;7.72;;
21671;SDS011;10997;52.242;8.168;2023-06-10T23:11:56;8.82;;;7.55;;
21671;SDS011;10997;52.242;8.168;2023-06-10T23:16:56;10.43;;;7.78;;
21671;SDS011;10997;52.242;8.168;2023-06-10T23:21:58;9.20;;;8.15;;
21671;SDS011;10997;52.242;8.168;2023-06-10T23:27:00;9.23;;;8.20;;
21671;SDS011;10997;52.242;8.168;2023-06-10T23:32:01;11.60;;;8.32;;
21671;SDS011;10997;52.242;8.168;2023-06-10T23:37:02;10.32;;;8.25;;
21671;SDS011;10997;52.242;8.168;2023-06-10T23:42:07;12.63;;;8.45;;
21671;SDS011;10997;52.242;8.168;2023-06-10T23:47:07;10.27;;;8.73;;
21671;SDS011;10997;52.242;8.168;2023-06-10T23:52:08;12.60;;;8.75;;
21671;SDS011;10997;52.242;8.168;2023-06-10T23:57:09;12.77;;;9.40;;
